createdAt,value
2019-01-13T00:00:28.361Z,1.22
2019-01-13T00:03:32.964Z,1.27
2019-01-13T00:06:37.718Z,1.28
2019-01-13T00:09:42.336Z,1.33
2019-01-13T00:12:47.318Z,1.34
2019-01-13T00:15:52.464Z,1.31
2019-01-13T00:18:57.124Z,1.34
2019-01-13T00:22:01.812Z,1.29
2019-01-13T00:25:07.165Z,1.32
2019-01-13T00:28:12.126Z,1.35
2019-01-13T00:31:16.816Z,1.36
2019-01-13T00:34:21.875Z,1.38
2019-01-13T00:37:26.542Z,1.35
2019-01-13T00:40:31.226Z,1.34
2019-01-13T00:43:36.277Z,1.30
2019-01-13T00:46:40.944Z,1.33
2019-01-13T00:49:45.674Z,1.33
2019-01-13T00:52:50.595Z,1.34
2019-01-13T00:55:55.206Z,1.39
2019-01-13T00:59:00.034Z,1.30
2019-01-13T01:02:05.040Z,1.30
2019-01-13T01:05:12.795Z,1.38
2019-01-13T01:08:17.635Z,1.35
2019-01-13T01:11:22.441Z,1.39
2019-01-13T01:14:27.349Z,1.42
2019-01-13T01:17:32.033Z,1.39
2019-01-13T01:20:36.727Z,1.37
2019-01-13T01:23:41.694Z,1.38
2019-01-13T01:26:46.450Z,1.41
2019-01-13T01:29:51.233Z,1.45
2019-01-13T01:32:55.913Z,1.48
2019-01-13T01:36:00.538Z,1.47
2019-01-13T01:39:07.733Z,1.51
2019-01-13T01:42:12.429Z,1.52
2019-01-13T01:45:19.909Z,1.51
2019-01-13T01:48:24.502Z,1.54
2019-01-13T01:51:29.433Z,1.54
2019-01-13T01:54:34.089Z,1.52
2019-01-13T01:57:39.141Z,1.53
2019-01-13T02:00:43.867Z,1.45
2019-01-13T02:03:48.542Z,1.46
2019-01-13T02:06:53.235Z,1.46
2019-01-13T02:09:57.883Z,1.53
2019-01-13T02:13:02.562Z,1.52
2019-01-13T02:16:07.191Z,1.54
2019-01-13T02:19:11.822Z,1.53
2019-01-13T02:22:16.453Z,1.55
2019-01-13T02:25:25.563Z,1.62
2019-01-13T02:28:30.750Z,1.59
2019-01-13T02:31:35.631Z,1.59
2019-01-13T02:34:40.257Z,1.60
2019-01-13T02:37:45.226Z,1.67
2019-01-13T02:40:49.864Z,1.64
2019-01-13T02:43:54.551Z,1.69
2019-01-13T02:46:59.163Z,1.66
2019-01-13T02:50:06.123Z,1.66
2019-01-13T02:53:11.151Z,1.69
2019-01-13T02:56:16.288Z,1.76
2019-01-13T02:59:20.973Z,1.76
2019-01-13T03:02:25.729Z,1.72
2019-01-13T03:05:30.342Z,1.72
2019-01-13T03:08:35.219Z,1.68
2019-01-13T03:11:39.928Z,1.64
2019-01-13T03:14:44.889Z,1.60
2019-01-13T03:17:51.353Z,1.66
2019-01-13T03:20:56.028Z,1.70
2019-01-13T03:24:00.933Z,1.72
2019-01-13T03:27:05.647Z,1.79
2019-01-13T03:30:20.176Z,1.81
2019-01-13T03:33:25.164Z,1.79
2019-01-13T03:36:29.852Z,1.84
2019-01-13T03:39:34.474Z,1.85
2019-01-13T03:42:39.108Z,1.87
2019-01-13T03:45:44.039Z,1.84
2019-01-13T03:48:48.670Z,1.81
2019-01-13T03:51:53.327Z,1.86
2019-01-13T03:54:57.973Z,1.81
2019-01-13T03:58:02.598Z,1.84
2019-01-13T04:01:07.693Z,1.85
2019-01-13T04:04:12.541Z,1.84
2019-01-13T04:07:17.155Z,1.81
2019-01-13T04:10:21.856Z,1.74
2019-01-13T04:13:26.480Z,1.77
2019-01-13T04:16:31.805Z,1.73
2019-01-13T04:19:39.177Z,1.76
2019-01-13T04:22:44.181Z,1.80
2019-01-13T04:25:51.978Z,1.86
2019-01-13T04:28:56.882Z,1.90
2019-01-13T04:32:01.514Z,1.90
2019-01-13T04:35:08.608Z,1.91
2019-01-13T04:38:13.523Z,1.87
2019-01-13T04:41:18.392Z,1.88
2019-01-13T04:44:23.067Z,1.86
2019-01-13T04:47:28.046Z,1.93
2019-01-13T04:50:32.759Z,1.98
2019-01-13T04:53:37.503Z,1.97
2019-01-13T04:56:42.128Z,1.95
2019-01-13T04:59:46.770Z,1.98
2019-01-13T05:02:51.682Z,1.90
2019-01-13T05:05:56.348Z,2.02
2019-01-13T05:09:01.412Z,2.00
2019-01-13T05:12:06.410Z,2.03
2019-01-13T05:15:14.804Z,2.01
2019-01-13T05:18:19.761Z,2.02
2019-01-13T05:21:24.816Z,2.06
2019-01-13T05:24:29.712Z,2.01
2019-01-13T05:27:34.361Z,2.09
2019-01-13T05:30:39.032Z,2.03
2019-01-13T05:33:43.712Z,2.07
2019-01-13T05:36:48.365Z,2.04
2019-01-13T05:39:52.976Z,2.04
2019-01-13T05:42:57.591Z,2.05
2019-01-13T05:46:03.962Z,1.95
2019-01-13T05:49:08.790Z,2.05
2019-01-13T05:52:13.735Z,2.04
2019-01-13T05:55:18.878Z,2.02
2019-01-13T05:58:23.586Z,2.07
2019-01-13T06:01:28.440Z,2.10
2019-01-13T06:04:33.394Z,2.08
2019-01-13T06:07:38.413Z,2.12
2019-01-13T06:10:43.347Z,2.05
2019-01-13T06:13:47.966Z,2.13
2019-01-13T06:16:52.592Z,2.12
2019-01-13T06:19:57.612Z,2.13
2019-01-13T06:23:02.598Z,2.07
2019-01-13T06:26:07.311Z,2.08
2019-01-13T06:29:11.931Z,2.08
2019-01-13T06:32:16.905Z,2.09
2019-01-13T06:35:21.670Z,2.14
2019-01-13T06:38:26.286Z,2.11
2019-01-13T06:41:31.216Z,2.18
2019-01-13T06:44:36.081Z,2.13
2019-01-13T06:47:43.851Z,2.14
2019-01-13T06:50:48.480Z,2.12
2019-01-13T06:53:53.195Z,2.14
2019-01-13T06:56:57.870Z,2.05
2019-01-13T07:00:03.657Z,2.08
2019-01-13T07:03:08.601Z,2.08
2019-01-13T07:06:13.296Z,2.07
2019-01-13T07:09:18.112Z,2.06
2019-01-13T07:12:22.795Z,2.01
2019-01-13T07:15:29.358Z,2.05
2019-01-13T07:18:34.049Z,2.02
2019-01-13T07:21:38.975Z,2.08
2019-01-13T07:24:43.881Z,2.06
2019-01-13T07:27:48.513Z,1.96
2019-01-13T07:30:54.713Z,2.02
2019-01-13T07:33:59.644Z,2.08
2019-01-13T07:37:05.856Z,2.07
2019-01-13T07:40:16.916Z,2.06
2019-01-13T07:43:21.573Z,2.03
2019-01-13T07:46:26.445Z,2.10
2019-01-13T07:49:31.130Z,2.07
2019-01-13T07:52:36.000Z,2.08
2019-01-13T07:55:40.630Z,2.12
2019-01-13T07:58:45.544Z,2.13
2019-01-13T08:01:50.474Z,2.11
2019-01-13T08:04:55.088Z,2.25
2019-01-13T08:07:59.752Z,2.29
2019-01-13T08:11:04.599Z,2.30
2019-01-13T08:14:09.228Z,2.37
2019-01-13T08:17:14.183Z,2.45
2019-01-13T08:20:32.529Z,2.51
2019-01-13T08:23:37.271Z,2.52
2019-01-13T08:26:42.129Z,2.55
2019-01-13T08:29:47.012Z,2.58
2019-01-13T08:32:51.622Z,2.61
2019-01-13T08:35:59.400Z,2.62
2019-01-13T08:39:05.887Z,2.58
2019-01-13T08:42:10.500Z,2.68
2019-01-13T08:45:15.864Z,2.68
2019-01-13T08:48:20.780Z,2.71
2019-01-13T08:51:25.409Z,2.84
2019-01-13T08:54:30.040Z,2.84
2019-01-13T08:57:34.731Z,2.84
2019-01-13T09:00:39.520Z,2.87
2019-01-13T09:03:44.197Z,2.87
2019-01-13T09:06:49.070Z,2.93
2019-01-13T09:09:53.817Z,2.95
2019-01-13T09:12:58.484Z,2.93
2019-01-13T09:16:03.122Z,2.97
2019-01-13T09:19:08.092Z,2.98
2019-01-13T09:22:12.720Z,2.99
2019-01-13T09:25:17.801Z,2.96
2019-01-13T09:28:22.697Z,2.99
2019-01-13T09:31:28.844Z,3.00
2019-01-13T09:34:33.532Z,2.99
2019-01-13T09:37:38.377Z,3.05
2019-01-13T09:40:43.058Z,3.09
2019-01-13T09:43:48.199Z,3.15
2019-01-13T09:46:52.958Z,3.24
2019-01-13T09:49:57.889Z,3.28
2019-01-13T09:53:02.828Z,3.26
2019-01-13T09:56:07.499Z,3.26
2019-01-13T09:59:12.162Z,3.31
2019-01-13T10:02:17.116Z,3.25
2019-01-13T10:05:21.815Z,3.30
2019-01-13T10:08:28.420Z,3.29
2019-01-13T10:11:33.309Z,3.34
2019-01-13T10:14:37.939Z,3.36
2019-01-13T10:17:42.641Z,3.45
2019-01-13T10:20:47.501Z,3.54
2019-01-13T10:23:54.039Z,3.60
2019-01-13T10:27:00.236Z,3.63
2019-01-13T10:30:15.477Z,3.55
2019-01-13T10:33:20.239Z,3.47
2019-01-13T10:36:25.086Z,3.48
2019-01-13T10:39:29.759Z,3.52
2019-01-13T10:42:34.366Z,3.46
2019-01-13T10:45:39.402Z,3.45
2019-01-13T10:48:44.058Z,3.35
2019-01-13T10:51:48.957Z,3.33
2019-01-13T10:54:53.942Z,3.27
2019-01-13T10:57:58.647Z,3.15
2019-01-13T11:01:03.732Z,3.06
2019-01-13T11:04:08.465Z,3.02
2019-01-13T11:07:13.117Z,3.00
2019-01-13T11:10:18.904Z,2.99
2019-01-13T11:13:23.566Z,3.00
2019-01-13T11:16:28.257Z,2.93
2019-01-13T11:19:32.996Z,2.83
2019-01-13T11:22:37.952Z,2.77
2019-01-13T11:25:42.588Z,2.69
2019-01-13T11:28:47.202Z,2.68
2019-01-13T11:31:52.111Z,2.70
2019-01-13T11:34:56.978Z,2.71
2019-01-13T11:38:01.679Z,2.75
2019-01-13T11:41:06.851Z,2.69
2019-01-13T11:44:11.564Z,2.76
2019-01-13T11:47:16.335Z,2.71
2019-01-13T11:50:24.128Z,2.78
2019-01-13T11:53:28.790Z,2.62
2019-01-13T11:56:33.680Z,2.59
2019-01-13T11:59:38.537Z,2.57
2019-01-13T12:02:43.481Z,2.61
2019-01-13T12:05:48.477Z,2.58
2019-01-13T12:08:53.395Z,2.52
2019-01-13T12:11:58.245Z,2.39
2019-01-13T12:15:03.370Z,2.27
2019-01-13T12:18:10.661Z,2.22
2019-01-13T12:21:15.627Z,2.19
2019-01-13T12:24:20.442Z,2.19
2019-01-13T12:27:25.059Z,2.13
2019-01-13T12:30:31.884Z,2.10
2019-01-13T12:33:36.574Z,2.12
2019-01-13T12:36:41.479Z,2.10
2019-01-13T12:39:46.460Z,2.08
2019-01-13T12:42:51.489Z,2.05
2019-01-13T12:45:56.176Z,2.07
2019-01-13T12:49:00.798Z,2.08
2019-01-13T12:52:05.979Z,2.13
2019-01-13T12:55:10.845Z,2.09
2019-01-13T12:58:15.469Z,2.12
2019-01-13T13:01:20.197Z,2.11
2019-01-13T13:04:24.844Z,2.15
2019-01-13T13:07:29.499Z,2.16
2019-01-13T13:10:37.955Z,2.18
2019-01-13T13:13:42.728Z,2.16
2019-01-13T13:16:47.668Z,2.19
2019-01-13T13:19:52.520Z,2.15
2019-01-13T13:22:57.464Z,2.19
2019-01-13T13:26:04.948Z,2.18
2019-01-13T13:29:09.684Z,2.20
2019-01-13T13:32:14.455Z,2.27
2019-01-13T13:35:19.575Z,2.24
2019-01-13T13:38:24.433Z,2.23
2019-01-13T13:41:29.101Z,2.17
2019-01-13T13:44:33.994Z,2.16
2019-01-13T13:47:38.967Z,2.16
2019-01-13T13:50:43.861Z,2.15
2019-01-13T13:53:48.798Z,2.09
2019-01-13T13:56:53.459Z,2.04
2019-01-13T13:59:58.091Z,1.97
2019-01-13T14:03:03.102Z,2.01
2019-01-13T14:06:07.759Z,1.99
2019-01-13T14:09:12.809Z,2.00
2019-01-13T14:12:19.462Z,1.98
2019-01-13T14:15:23.870Z,2.01
2019-01-13T14:18:28.478Z,2.02
2019-01-13T14:21:33.101Z,2.03
2019-01-13T14:24:37.760Z,2.08
2019-01-13T14:27:42.496Z,2.13
2019-01-13T14:30:47.674Z,2.13
2019-01-13T14:33:53.088Z,2.20
2019-01-13T14:36:58.215Z,2.26
2019-01-13T14:40:03.707Z,2.27
2019-01-13T14:43:08.430Z,2.30
2019-01-13T14:46:13.637Z,2.33
2019-01-13T14:49:18.303Z,2.37
2019-01-13T14:52:23.197Z,2.34
2019-01-13T14:55:29.092Z,2.38
2019-01-13T14:58:46.574Z,2.38
2019-01-13T15:01:51.166Z,2.40
2019-01-13T15:04:56.067Z,2.33
2019-01-13T15:08:01.026Z,2.43
2019-01-13T15:11:05.716Z,2.39
2019-01-13T15:14:10.658Z,2.45
2019-01-13T15:17:17.233Z,2.43
2019-01-13T15:20:24.219Z,2.41
2019-01-13T15:23:29.274Z,2.51
2019-01-13T15:26:34.345Z,2.52
2019-01-13T15:29:39.388Z,2.63
2019-01-13T15:32:44.365Z,2.60
2019-01-13T15:35:49.197Z,2.69
2019-01-13T15:38:53.945Z,2.72
2019-01-13T15:41:58.658Z,2.70
2019-01-13T15:45:03.335Z,2.72
2019-01-13T15:48:08.446Z,2.87
2019-01-13T15:51:13.224Z,2.86
2019-01-13T15:54:18.268Z,2.83
2019-01-13T15:57:22.922Z,2.81
2019-01-13T16:00:33.511Z,2.86
2019-01-13T16:03:38.123Z,2.82
2019-01-13T16:06:43.539Z,2.82
2019-01-13T16:09:48.423Z,2.81
2019-01-13T16:12:53.278Z,2.84
2019-01-13T16:15:58.219Z,2.81
2019-01-13T16:19:02.944Z,2.77
2019-01-13T16:22:07.855Z,2.82
2019-01-13T16:25:12.681Z,2.88
2019-01-13T16:28:19.604Z,2.89
2019-01-13T16:31:24.530Z,2.90
2019-01-13T16:34:29.457Z,2.92
2019-01-13T16:37:34.170Z,3.00
2019-01-13T16:40:39.212Z,3.03
2019-01-13T16:43:45.168Z,3.15
2019-01-13T16:46:50.124Z,3.13
2019-01-13T16:49:54.821Z,3.19
2019-01-13T16:52:59.638Z,3.28
2019-01-13T16:56:04.643Z,3.34
2019-01-13T16:59:09.450Z,3.39
2019-01-13T17:02:14.478Z,3.42
2019-01-13T17:05:21.310Z,3.42
2019-01-13T17:08:26.051Z,3.25
2019-01-13T17:11:31.063Z,3.38
2019-01-13T17:14:36.073Z,3.42
2019-01-13T17:17:40.992Z,3.44
2019-01-13T17:20:45.874Z,3.48
2019-01-13T17:23:50.540Z,3.50
2019-01-13T17:26:55.360Z,3.54
2019-01-13T17:30:00.184Z,3.57
2019-01-13T17:33:13.251Z,3.62
2019-01-13T17:36:18.429Z,3.59
2019-01-13T17:39:26.346Z,3.58
2019-01-13T17:42:31.009Z,3.67
2019-01-13T17:45:35.843Z,3.65
2019-01-13T17:48:40.502Z,3.67
2019-01-13T17:51:45.185Z,3.68
2019-01-13T17:54:49.863Z,3.64
2019-01-13T17:57:54.767Z,3.56
2019-01-13T18:01:01.598Z,3.57
2019-01-13T18:04:06.229Z,3.61
2019-01-13T18:07:11.141Z,3.61
2019-01-13T18:10:16.036Z,3.58
2019-01-13T18:13:20.785Z,3.52
2019-01-13T18:16:25.661Z,3.53
2019-01-13T18:19:30.661Z,3.62
2019-01-13T18:22:35.467Z,3.62
2019-01-13T18:25:40.452Z,3.51
2019-01-13T18:28:45.330Z,3.69
2019-01-13T18:31:53.011Z,3.64
2019-01-13T18:34:57.658Z,3.70
2019-01-13T18:38:21.962Z,3.70
2019-01-13T18:41:39.351Z,3.81
2019-01-13T18:45:03.785Z,3.73
2019-01-13T18:48:27.745Z,3.77
2019-01-13T18:51:52.052Z,3.77
2019-01-13T18:55:35.606Z,3.77
2019-01-13T18:58:40.462Z,3.68
2019-01-13T19:01:45.114Z,3.64
2019-01-13T19:04:49.736Z,3.73
2019-01-13T19:08:13.732Z,3.76
2019-01-13T19:18:57.066Z,3.71
2019-01-13T19:22:21.083Z,3.75
2019-01-13T19:25:45.294Z,3.81
2019-01-13T19:28:49.949Z,3.81
2019-01-13T19:31:54.805Z,3.87
2019-01-13T19:35:19.082Z,3.94
2019-01-13T19:38:43.048Z,3.85
2019-01-13T19:42:00.462Z,3.77
2019-01-13T19:45:24.696Z,3.78
2019-01-13T19:48:29.616Z,3.75
2019-01-13T19:51:53.583Z,3.81
2019-01-13T19:59:08.509Z,3.84
2019-01-13T20:02:32.487Z,3.83
2019-01-13T20:05:56.496Z,3.76
2019-01-13T20:09:20.801Z,3.88
2019-01-13T20:12:45.141Z,3.95
2019-01-13T20:16:09.114Z,3.96
2019-01-13T20:19:33.458Z,3.95
2019-01-13T20:22:57.470Z,3.94
2019-01-13T20:26:21.503Z,3.98
2019-01-13T20:29:45.531Z,4.04
2019-01-13T20:33:09.501Z,4.10
2019-01-13T20:36:33.453Z,4.03
2019-01-13T20:39:57.414Z,4.07
2019-01-13T20:43:21.710Z,4.09
2019-01-13T20:47:04.913Z,4.07
2019-01-13T20:50:48.406Z,4.02
2019-01-13T20:53:53.069Z,4.16
2019-01-13T20:56:58.006Z,4.10
2019-01-13T21:00:02.632Z,4.10
2019-01-13T21:03:26.858Z,4.02
2019-01-13T21:10:33.807Z,4.13
2019-01-13T21:13:58.027Z,4.07
2019-01-13T21:17:22.256Z,4.09
2019-01-13T21:20:46.261Z,4.04
2019-01-13T21:24:10.517Z,4.04
2019-01-13T21:31:19.368Z,4.01
2019-01-13T21:34:43.341Z,4.16
2019-01-13T21:38:07.308Z,4.12
2019-01-13T21:41:24.539Z,4.18
2019-01-13T21:44:48.539Z,4.20
2019-01-13T21:48:31.529Z,4.25
2019-01-13T21:51:55.567Z,4.30
2019-01-13T21:55:20.044Z,4.25
2019-01-13T21:58:44.043Z,4.18
2019-01-13T22:02:39.329Z,4.14
2019-01-13T22:05:40.777Z,4.28
2019-01-13T22:08:59.724Z,4.32
2019-01-13T22:12:23.959Z,4.24
2019-01-13T22:15:28.898Z,4.34
2019-01-13T22:18:53.265Z,4.35
2019-01-13T22:22:17.470Z,4.32
2019-01-13T22:25:41.495Z,4.42
2019-01-13T22:28:46.244Z,4.35
2019-01-13T22:32:10.317Z,4.33
2019-01-13T22:35:15.034Z,4.40
2019-01-13T22:38:39.252Z,4.46
2019-01-13T22:41:56.554Z,4.42
2019-01-13T22:45:41.557Z,4.44
2019-01-13T22:49:06.008Z,4.41
2019-01-13T22:52:10.625Z,4.39
2019-01-13T22:59:04.975Z,4.39
2019-01-13T23:02:30.248Z,4.32
2019-01-13T23:05:36.408Z,4.20
2019-01-13T23:08:41.025Z,4.16
2019-01-13T23:12:05.338Z,4.13
2019-01-13T23:15:29.309Z,4.09
2019-01-13T23:19:12.355Z,4.12
2019-01-13T23:22:36.319Z,4.06
2019-01-13T23:26:19.580Z,4.02
2019-01-13T23:29:24.533Z,3.81
2019-01-13T23:32:48.560Z,3.84
2019-01-13T23:36:12.660Z,3.78
2019-01-13T23:39:36.617Z,3.80
2019-01-13T23:42:53.807Z,3.68
2019-01-13T23:46:18.068Z,3.67
2019-01-13T23:49:23.008Z,3.68
2019-01-13T23:59:27.797Z,3.87
